sensor_id;sensor_type;location;lat;lon;timestamp;pressure;altitude;pressure_sealevel;temperature;humidity
17230;BME280;8731;50.364;8.958;2023-02-19T00:03:24;100385.09;;;10.50;93.09
17230;BME280;8731;50.364;8.958;2023-02-19T00:07:46;100383.00;;;10.45;93.14
17230;BME280;8731;50.364;8.958;2023-02-19T00:12:10;100372.81;;;10.45;92.82
17230;BME280;8731;50.364;8.958;2023-02-19T00:16:34;100362.34;;;10.42;92.28
17230;BME280;8731;50.364;8.958;2023-02-19T00:20:57;100359.47;;;10.39;92.47
17230;BME280;8731;50.364;8.958;2023-02-19T00:25:19;100353.81;;;10.42;92.89
17230;BME280;8731;50.364;8.958;2023-02-19T00:29:43;100362.94;;;10.49;92.94
17230;BME280;8731;50.364;8.958;2023-02-19T00:34:05;100350.38;;;10.41;93.00
17230;BME280;8731;50.364;8.958;2023-02-19T00:38:28;100361.13;;;10.39;93.01
17230;BME280;8731;50.364;8.958;2023-02-19T00:42:51;100351.56;;;10.36;92.92
17230;BME280;8731;50.364;8.958;2023-02-19T00:47:15;100339.72;;;10.37;93.02
17230;BME280;8731;50.364;8.958;2023-02-19T00:51:37;100344.22;;;10.39;92.40
17230;BME280;8731;50.364;8.958;2023-02-19T00:55:59;100336.75;;;10.41;92.84
17230;BME280;8731;50.364;8.958;2023-02-19T01:00:22;100332.84;;;10.44;92.05
17230;BME280;8731;50.364;8.958;2023-02-19T01:04:45;100328.78;;;10.38;92.08
17230;BME280;8731;50.364;8.958;2023-02-19T01:09:08;100335.25;;;10.34;92.74
17230;BME280;8731;50.364;8.958;2023-02-19T01:13:30;100333.00;;;10.37;92.64
17230;BME280;8731;50.364;8.958;2023-02-19T01:17:53;100323.28;;;10.33;92.63
17230;BME280;8731;50.364;8.958;2023-02-19T01:22:16;100326.56;;;10.41;91.81
17230;BME280;8731;50.364;8.958;2023-02-19T01:26:39;100319.50;;;10.38;92.16
17230;BME280;8731;50.364;8.958;2023-02-19T01:31:02;100315.63;;;10.33;93.32
17230;BME280;8731;50.364;8.958;2023-02-19T01:35:26;100316.22;;;10.39;92.84
17230;BME280;8731;50.364;8.958;2023-02-19T01:39:50;100313.38;;;10.36;94.36
17230;BME280;8731;50.364;8.958;2023-02-19T01:49:41;100307.25;;;10.34;94.79
17230;BME280;8731;50.364;8.958;2023-02-19T01:54:09;100307.09;;;10.41;94.40
17230;BME280;8731;50.364;8.958;2023-02-19T01:58:35;100304.69;;;10.43;94.17
17230;BME280;8731;50.364;8.958;2023-02-19T02:02:59;100299.91;;;10.37;94.48
17230;BME280;8731;50.364;8.958;2023-02-19T02:07:22;100303.50;;;10.39;94.64
17230;BME280;8731;50.364;8.958;2023-02-19T02:12:02;100302.91;;;10.33;94.70
17230;BME280;8731;50.364;8.958;2023-02-19T02:16:32;100282.09;;;10.37;94.91
17230;BME280;8731;50.364;8.958;2023-02-19T02:21:20;100283.16;;;10.31;95.40
17230;BME280;8731;50.364;8.958;2023-02-19T02:26:07;100279.72;;;10.30;95.71
17230;BME280;8731;50.364;8.958;2023-02-19T02:30:45;100268.50;;;10.28;96.38
17230;BME280;8731;50.364;8.958;2023-02-19T02:35:11;100264.59;;;10.32;96.47
17230;BME280;8731;50.364;8.958;2023-02-19T02:39:40;100266.53;;;10.34;95.57
17230;BME280;8731;50.364;8.958;2023-02-19T02:44:05;100270.00;;;10.26;96.30
17230;BME280;8731;50.364;8.958;2023-02-19T02:48:33;100270.00;;;10.26;96.42
17230;BME280;8731;50.364;8.958;2023-02-19T02:53:02;100259.22;;;10.29;95.69
17230;BME280;8731;50.364;8.958;2023-02-19T02:57:46;100260.25;;;10.31;95.78
17230;BME280;8731;50.364;8.958;2023-02-19T03:02:13;100269.53;;;10.30;96.54
17230;BME280;8731;50.364;8.958;2023-02-19T03:06:41;100245.59;;;10.28;97.28
17230;BME280;8731;50.364;8.958;2023-02-19T03:11:08;100253.69;;;10.24;97.58
17230;BME280;8731;50.364;8.958;2023-02-19T03:15:54;100264.00;;;10.17;99.96
17230;BME280;8731;50.364;8.958;2023-02-19T03:20:39;100265.06;;;10.19;100.00
17230;BME280;8731;50.364;8.958;2023-02-19T03:25:10;100255.63;;;10.18;100.00
17230;BME280;8731;50.364;8.958;2023-02-19T03:29:56;100254.13;;;10.20;100.00
17230;BME280;8731;50.364;8.958;2023-02-19T03:34:25;100261.78;;;10.20;100.00
17230;BME280;8731;50.364;8.958;2023-02-19T03:38:56;100263.13;;;10.25;100.00
17230;BME280;8731;50.364;8.958;2023-02-19T03:43:32;100261.06;;;10.21;100.00
17230;BME280;8731;50.364;8.958;2023-02-19T03:48:06;100260.44;;;10.24;100.00
17230;BME280;8731;50.364;8.958;2023-02-19T03:52:47;100254.88;;;10.10;100.00
17230;BME280;8731;50.364;8.958;2023-02-19T03:57:19;100268.81;;;10.23;100.00
17230;BME280;8731;50.364;8.958;2023-02-19T04:01:52;100269.72;;;10.23;99.49
17230;BME280;8731;50.364;8.958;2023-02-19T04:06:19;100262.97;;;10.24;98.98
17230;BME280;8731;50.364;8.958;2023-02-19T04:10:46;100265.97;;;10.20;99.31
17230;BME280;8731;50.364;8.958;2023-02-19T04:15:12;100269.41;;;10.20;99.52
17230;BME280;8731;50.364;8.958;2023-02-19T04:19:41;100269.41;;;10.20;99.06
17230;BME280;8731;50.364;8.958;2023-02-19T04:24:09;100268.19;;;10.16;99.09
17230;BME280;8731;50.364;8.958;2023-02-19T04:28:37;100278.84;;;10.21;97.54
17230;BME280;8731;50.364;8.958;2023-02-19T04:33:00;100272.25;;;10.23;97.45
17230;BME280;8731;50.364;8.958;2023-02-19T04:37:23;100273.03;;;10.22;97.72
17230;BME280;8731;50.364;8.958;2023-02-19T04:41:46;100273.44;;;10.18;97.87
17230;BME280;8731;50.364;8.958;2023-02-19T04:46:08;100280.47;;;10.29;97.00
17230;BME280;8731;50.364;8.958;2023-02-19T04:50:30;100277.50;;;10.25;96.65
17230;BME280;8731;50.364;8.958;2023-02-19T04:54:54;100291.41;;;10.28;97.13
17230;BME280;8731;50.364;8.958;2023-02-19T04:59:16;100291.56;;;10.30;97.18
17230;BME280;8731;50.364;8.958;2023-02-19T05:03:38;100294.25;;;10.31;97.14
17230;BME280;8731;50.364;8.958;2023-02-19T05:08:01;100292.44;;;10.30;96.87
17230;BME280;8731;50.364;8.958;2023-02-19T05:12:25;100293.19;;;10.29;96.50
17230;BME280;8731;50.364;8.958;2023-02-19T05:16:47;100296.63;;;10.30;96.18
17230;BME280;8731;50.364;8.958;2023-02-19T05:21:10;100301.56;;;10.37;96.09
17230;BME280;8731;50.364;8.958;2023-02-19T05:25:33;100307.09;;;10.33;97.04
17230;BME280;8731;50.364;8.958;2023-02-19T05:29:56;100323.59;;;10.28;97.74
17230;BME280;8731;50.364;8.958;2023-02-19T05:34:19;100321.47;;;10.32;97.63
17230;BME280;8731;50.364;8.958;2023-02-19T05:38:41;100324.78;;;10.31;98.85
17230;BME280;8731;50.364;8.958;2023-02-19T05:43:03;100323.41;;;10.35;98.49
17230;BME280;8731;50.364;8.958;2023-02-19T05:47:28;100326.28;;;10.29;98.32
17230;BME280;8731;50.364;8.958;2023-02-19T05:51:50;100322.09;;;10.30;98.29
17230;BME280;8731;50.364;8.958;2023-02-19T05:56:23;100335.72;;;10.30;98.60
17230;BME280;8731;50.364;8.958;2023-02-19T06:00:53;100336.47;;;10.29;98.33
17230;BME280;8731;50.364;8.958;2023-02-19T06:05:18;100334.63;;;10.37;98.03
17230;BME280;8731;50.364;8.958;2023-02-19T06:09:41;100354.72;;;10.34;98.00
17230;BME280;8731;50.364;8.958;2023-02-19T06:14:03;100363.38;;;10.36;98.35
17230;BME280;8731;50.364;8.958;2023-02-19T06:18:26;100353.81;;;10.33;97.91
17230;BME280;8731;50.364;8.958;2023-02-19T06:22:52;100353.84;;;10.25;97.58
17230;BME280;8731;50.364;8.958;2023-02-19T06:27:14;100373.28;;;10.33;96.64
17230;BME280;8731;50.364;8.958;2023-02-19T06:31:36;100381.81;;;10.33;96.82
17230;BME280;8731;50.364;8.958;2023-02-19T06:36:00;100392.13;;;10.35;96.22
17230;BME280;8731;50.364;8.958;2023-02-19T06:40:25;100388.69;;;10.34;96.03
17230;BME280;8731;50.364;8.958;2023-02-19T06:44:47;100400.22;;;10.31;95.46
17230;BME280;8731;50.364;8.958;2023-02-19T06:49:09;100406.50;;;10.34;95.55
17230;BME280;8731;50.364;8.958;2023-02-19T06:53:32;100420.13;;;10.35;95.04
17230;BME280;8731;50.364;8.958;2023-02-19T06:57:56;100420.41;;;10.38;94.79
17230;BME280;8731;50.364;8.958;2023-02-19T07:02:18;100428.38;;;10.32;94.79
17230;BME280;8731;50.364;8.958;2023-02-19T07:06:41;100422.81;;;10.36;94.15
17230;BME280;8731;50.364;8.958;2023-02-19T07:11:04;100427.75;;;10.35;94.28
17230;BME280;8731;50.364;8.958;2023-02-19T07:15:27;100426.72;;;10.41;93.95
17230;BME280;8731;50.364;8.958;2023-02-19T07:19:49;100431.50;;;10.30;93.68
17230;BME280;8731;50.364;8.958;2023-02-19T07:24:12;100426.41;;;10.38;93.93
17230;BME280;8731;50.364;8.958;2023-02-19T07:28:34;100445.28;;;10.32;93.80
17230;BME280;8731;50.364;8.958;2023-02-19T07:32:57;100447.50;;;10.37;92.82
17230;BME280;8731;50.364;8.958;2023-02-19T07:37:20;100447.50;;;10.37;91.63
17230;BME280;8731;50.364;8.958;2023-02-19T07:41:42;100476.88;;;10.42;91.63
17230;BME280;8731;50.364;8.958;2023-02-19T07:46:15;100472.84;;;10.44;91.38
17230;BME280;8731;50.364;8.958;2023-02-19T07:50:39;100481.66;;;10.48;90.83
17230;BME280;8731;50.364;8.958;2023-02-19T07:55:02;100488.84;;;10.52;91.30
17230;BME280;8731;50.364;8.958;2023-02-19T07:59:24;100500.38;;;10.57;89.93
17230;BME280;8731;50.364;8.958;2023-02-19T08:03:46;100509.50;;;10.64;90.88
17230;BME280;8731;50.364;8.958;2023-02-19T08:08:12;100520.16;;;10.68;90.66
17230;BME280;8731;50.364;8.958;2023-02-19T08:12:35;100510.72;;;10.59;90.05
17230;BME280;8731;50.364;8.958;2023-02-19T08:17:14;100521.34;;;10.63;90.46
17230;BME280;8731;50.364;8.958;2023-02-19T08:21:37;100532.84;;;10.86;90.57
17230;BME280;8731;50.364;8.958;2023-02-19T08:26:00;100539.75;;;10.95;90.03
17230;BME280;8731;50.364;8.958;2023-02-19T08:30:23;100548.44;;;10.97;90.24
17230;BME280;8731;50.364;8.958;2023-02-19T08:34:45;100558.03;;;11.00;90.79
17230;BME280;8731;50.364;8.958;2023-02-19T08:39:07;100564.75;;;11.08;90.77
17230;BME280;8731;50.364;8.958;2023-02-19T08:43:31;100576.03;;;11.01;90.90
17230;BME280;8731;50.364;8.958;2023-02-19T08:47:54;100585.28;;;11.10;90.92
17230;BME280;8731;50.364;8.958;2023-02-19T08:52:16;100576.91;;;11.11;90.71
17230;BME280;8731;50.364;8.958;2023-02-19T08:56:38;100587.41;;;11.14;90.35
17230;BME280;8731;50.364;8.958;2023-02-19T09:01:02;100595.22;;;10.89;89.13
17230;BME280;8731;50.364;8.958;2023-02-19T09:05:29;100594.00;;;11.03;89.00
17230;BME280;8731;50.364;8.958;2023-02-19T09:09:51;100582.19;;;10.95;89.63
17230;BME280;8731;50.364;8.958;2023-02-19T09:14:14;100602.69;;;11.05;88.84
17230;BME280;8731;50.364;8.958;2023-02-19T09:18:37;100606.59;;;11.01;88.80
17230;BME280;8731;50.364;8.958;2023-02-19T09:23:00;100618.28;;;10.82;88.64
17230;BME280;8731;50.364;8.958;2023-02-19T09:27:22;100600.16;;;10.96;88.64
17230;BME280;8731;50.364;8.958;2023-02-19T09:31:44;100591.31;;;10.93;88.88
17230;BME280;8731;50.364;8.958;2023-02-19T09:36:09;100608.97;;;11.08;89.40
17230;BME280;8731;50.364;8.958;2023-02-19T09:40:34;100615.75;;;10.99;89.73
17230;BME280;8731;50.364;8.958;2023-02-19T09:44:58;100614.97;;;11.09;89.14
17230;BME280;8731;50.364;8.958;2023-02-19T09:49:27;100618.88;;;11.05;89.11
17230;BME280;8731;50.364;8.958;2023-02-19T09:53:55;100626.22;;;11.02;89.09
17230;BME280;8731;50.364;8.958;2023-02-19T09:58:22;100631.91;;;11.08;88.82
17230;BME280;8731;50.364;8.958;2023-02-19T10:02:53;100643.16;;;11.11;89.70
17230;BME280;8731;50.364;8.958;2023-02-19T10:07:22;100645.69;;;11.11;90.00
17230;BME280;8731;50.364;8.958;2023-02-19T10:11:48;100653.06;;;11.16;89.81
17230;BME280;8731;50.364;8.958;2023-02-19T10:16:14;100657.72;;;11.20;89.00
17230;BME280;8731;50.364;8.958;2023-02-19T10:20:40;100654.72;;;11.24;88.72
17230;BME280;8731;50.364;8.958;2023-02-19T10:25:02;100658.59;;;11.21;88.57
17230;BME280;8731;50.364;8.958;2023-02-19T10:29:26;100661.75;;;11.27;87.99
17230;BME280;8731;50.364;8.958;2023-02-19T10:33:49;100669.97;;;11.33;87.53
17230;BME280;8731;50.364;8.958;2023-02-19T10:38:15;100675.09;;;11.33;87.22
17230;BME280;8731;50.364;8.958;2023-02-19T10:42:44;100694.28;;;11.29;87.21
17230;BME280;8731;50.364;8.958;2023-02-19T10:47:15;100698.91;;;11.33;86.28
17230;BME280;8731;50.364;8.958;2023-02-19T10:51:40;100709.72;;;11.31;84.80
17230;BME280;8731;50.364;8.958;2023-02-19T10:56:07;100705.53;;;11.40;85.30
17230;BME280;8731;50.364;8.958;2023-02-19T11:00:32;100712.72;;;11.44;85.15
17230;BME280;8731;50.364;8.958;2023-02-19T11:05:06;100718.41;;;11.59;85.16
17230;BME280;8731;50.364;8.958;2023-02-19T11:09:39;100726.25;;;11.43;84.33
17230;BME280;8731;50.364;8.958;2023-02-19T11:14:12;100730.88;;;11.64;84.69
17230;BME280;8731;50.364;8.958;2023-02-19T11:18:37;100732.38;;;11.62;84.76
17230;BME280;8731;50.364;8.958;2023-02-19T11:23:12;100740.47;;;11.67;84.74
17230;BME280;8731;50.364;8.958;2023-02-19T11:27:52;100748.13;;;11.67;84.22
17230;BME280;8731;50.364;8.958;2023-02-19T11:32:23;100751.59;;;11.85;84.75
17230;BME280;8731;50.364;8.958;2023-02-19T11:37:07;100750.53;;;11.91;83.59
17230;BME280;8731;50.364;8.958;2023-02-19T11:41:54;100759.28;;;12.29;84.61
17230;BME280;8731;50.364;8.958;2023-02-19T11:46:38;100741.25;;;12.37;83.32
17230;BME280;8731;50.364;8.958;2023-02-19T11:51:21;100736.53;;;12.77;81.84
17230;BME280;8731;50.364;8.958;2023-02-19T11:56:14;100728.28;;;13.07;81.21
17230;BME280;8731;50.364;8.958;2023-02-19T12:00:43;100732.84;;;13.20;80.30
17230;BME280;8731;50.364;8.958;2023-02-19T12:05:33;100732.28;;;13.14;78.15
17230;BME280;8731;50.364;8.958;2023-02-19T12:10:11;100736.28;;;13.02;76.79
17230;BME280;8731;50.364;8.958;2023-02-19T12:20:13;100728.66;;;13.20;75.82
17230;BME280;8731;50.364;8.958;2023-02-19T12:25:08;100737.84;;;13.56;76.39
17230;BME280;8731;50.364;8.958;2023-02-19T12:29:53;100735.34;;;13.47;75.03
17230;BME280;8731;50.364;8.958;2023-02-19T12:34:55;100728.78;;;13.60;75.45
17230;BME280;8731;50.364;8.958;2023-02-19T12:39:43;100727.66;;;13.85;74.92
17230;BME280;8731;50.364;8.958;2023-02-19T12:44:12;100730.84;;;13.45;74.92
17230;BME280;8731;50.364;8.958;2023-02-19T12:48:44;100733.41;;;13.45;74.95
17230;BME280;8731;50.364;8.958;2023-02-19T12:53:23;100715.06;;;13.30;75.10
17230;BME280;8731;50.364;8.958;2023-02-19T12:57:55;100711.00;;;13.05;74.06
17230;BME280;8731;50.364;8.958;2023-02-19T13:02:26;100702.53;;;13.52;74.26
17230;BME280;8731;50.364;8.958;2023-02-19T13:06:57;100719.69;;;13.82;73.72
17230;BME280;8731;50.364;8.958;2023-02-19T13:11:30;100732.59;;;13.55;72.42
17230;BME280;8731;50.364;8.958;2023-02-19T13:16:01;100737.38;;;13.41;72.37
17230;BME280;8731;50.364;8.958;2023-02-19T13:20:30;100734.03;;;13.61;72.77
17230;BME280;8731;50.364;8.958;2023-02-19T13:24:55;100745.53;;;13.37;73.07
17230;BME280;8731;50.364;8.958;2023-02-19T13:29:32;100742.78;;;13.17;73.91
17230;BME280;8731;50.364;8.958;2023-02-19T13:34:10;100742.59;;;13.24;73.69
17230;BME280;8731;50.364;8.958;2023-02-19T13:38:42;100751.94;;;13.42;73.99
17230;BME280;8731;50.364;8.958;2023-02-19T13:43:21;100756.16;;;13.42;74.33
17230;BME280;8731;50.364;8.958;2023-02-19T13:48:01;100763.22;;;13.26;74.16
17230;BME280;8731;50.364;8.958;2023-02-19T13:52:40;100769.41;;;12.91;74.65
17230;BME280;8731;50.364;8.958;2023-02-19T13:57:25;100775.84;;;12.97;75.30
17230;BME280;8731;50.364;8.958;2023-02-19T14:12:30;100779.69;;;12.74;76.39
17230;BME280;8731;50.364;8.958;2023-02-19T14:16:58;100772.03;;;12.74;76.46
17230;BME280;8731;50.364;8.958;2023-02-19T14:21:25;100787.84;;;12.70;76.61
17230;BME280;8731;50.364;8.958;2023-02-19T14:25:57;100793.06;;;12.80;76.96
17230;BME280;8731;50.364;8.958;2023-02-19T14:30:24;100799.00;;;12.62;76.59
17230;BME280;8731;50.364;8.958;2023-02-19T14:34:47;100800.22;;;12.57;77.41
17230;BME280;8731;50.364;8.958;2023-02-19T14:39:12;100799.63;;;12.51;76.77
17230;BME280;8731;50.364;8.958;2023-02-19T14:43:38;100795.69;;;12.63;76.98
17230;BME280;8731;50.364;8.958;2023-02-19T14:48:02;100797.06;;;12.51;77.72
17230;BME280;8731;50.364;8.958;2023-02-19T14:52:34;100785.81;;;12.49;76.96
17230;BME280;8731;50.364;8.958;2023-02-19T14:57:00;100786.63;;;12.39;76.96
17230;BME280;8731;50.364;8.958;2023-02-19T15:01:26;100795.75;;;12.46;76.68
17230;BME280;8731;50.364;8.958;2023-02-19T15:05:53;100807.28;;;12.51;76.37
17230;BME280;8731;50.364;8.958;2023-02-19T15:10:18;100815.59;;;12.40;76.65
17230;BME280;8731;50.364;8.958;2023-02-19T15:14:41;100819.06;;;12.40;75.65
17230;BME280;8731;50.364;8.958;2023-02-19T15:19:07;100819.22;;;12.33;75.82
17230;BME280;8731;50.364;8.958;2023-02-19T15:23:33;100815.91;;;12.25;75.83
17230;BME280;8731;50.364;8.958;2023-02-19T15:28:17;100822.97;;;12.28;75.12
17230;BME280;8731;50.364;8.958;2023-02-19T15:32:50;100834.41;;;12.23;75.44
17230;BME280;8731;50.364;8.958;2023-02-19T15:37:13;100832.34;;;12.10;75.86
17230;BME280;8731;50.364;8.958;2023-02-19T15:41:37;100838.50;;;12.12;75.91
17230;BME280;8731;50.364;8.958;2023-02-19T15:46:04;100842.81;;;12.05;75.71
17230;BME280;8731;50.364;8.958;2023-02-19T15:50:33;100834.59;;;12.07;76.23
17230;BME280;8731;50.364;8.958;2023-02-19T15:55:02;100828.28;;;12.12;75.69
17230;BME280;8731;50.364;8.958;2023-02-19T15:59:33;100807.53;;;12.18;76.32
17230;BME280;8731;50.364;8.958;2023-02-19T16:04:01;100798.22;;;12.18;76.53
17230;BME280;8731;50.364;8.958;2023-02-19T16:08:28;100791.63;;;12.12;76.10
17230;BME280;8731;50.364;8.958;2023-02-19T16:12:55;100795.09;;;12.04;76.40
17230;BME280;8731;50.364;8.958;2023-02-19T16:17:21;100808.31;;;11.99;75.99
17230;BME280;8731;50.364;8.958;2023-02-19T16:21:47;100809.38;;;11.93;76.82
17230;BME280;8731;50.364;8.958;2023-02-19T16:26:10;100814.50;;;11.84;76.80
17230;BME280;8731;50.364;8.958;2023-02-19T16:30:32;100817.19;;;11.86;77.87
17230;BME280;8731;50.364;8.958;2023-02-19T16:34:56;100819.00;;;11.87;77.28
17230;BME280;8731;50.364;8.958;2023-02-19T16:39:20;100829.31;;;11.80;77.22
17230;BME280;8731;50.364;8.958;2023-02-19T16:43:43;100842.66;;;11.77;77.27
17230;BME280;8731;50.364;8.958;2023-02-19T16:48:06;100840.56;;;11.82;78.70
17230;BME280;8731;50.364;8.958;2023-02-19T16:52:30;100856.47;;;11.71;78.62
17230;BME280;8731;50.364;8.958;2023-02-19T16:56:52;100855.22;;;11.58;78.94
17230;BME280;8731;50.364;8.958;2023-02-19T17:01:15;100866.31;;;11.59;78.46
17230;BME280;8731;50.364;8.958;2023-02-19T17:05:38;100878.94;;;11.49;79.14
17230;BME280;8731;50.364;8.958;2023-02-19T17:10:03;100883.13;;;11.48;79.60
17230;BME280;8731;50.364;8.958;2023-02-19T17:14:26;100905.88;;;11.29;80.42
17230;BME280;8731;50.364;8.958;2023-02-19T17:18:48;100913.13;;;11.42;80.16
17230;BME280;8731;50.364;8.958;2023-02-19T17:23:11;100924.16;;;11.34;79.79
17230;BME280;8731;50.364;8.958;2023-02-19T17:27:35;100936.66;;;11.06;80.91
17230;BME280;8731;50.364;8.958;2023-02-19T17:31:57;100937.03;;;11.27;79.86
17230;BME280;8731;50.364;8.958;2023-02-19T17:36:21;100950.81;;;11.20;79.66
17230;BME280;8731;50.364;8.958;2023-02-19T17:40:45;100947.91;;;11.08;79.60
17230;BME280;8731;50.364;8.958;2023-02-19T17:45:09;100954.88;;;11.18;79.55
17230;BME280;8731;50.364;8.958;2023-02-19T17:49:33;100957.69;;;11.13;79.87
17230;BME280;8731;50.364;8.958;2023-02-19T17:53:55;100953.81;;;10.92;80.58
17230;BME280;8731;50.364;8.958;2023-02-19T17:58:17;100966.59;;;11.00;79.98
17230;BME280;8731;50.364;8.958;2023-02-19T18:02:41;100973.50;;;11.01;79.90
17230;BME280;8731;50.364;8.958;2023-02-19T18:07:03;100974.25;;;11.00;80.06
17230;BME280;8731;50.364;8.958;2023-02-19T18:11:26;100988.44;;;10.90;79.90
17230;BME280;8731;50.364;8.958;2023-02-19T18:15:48;101007.22;;;10.99;79.26
17230;BME280;8731;50.364;8.958;2023-02-19T18:20:14;101005.19;;;10.88;79.50
17230;BME280;8731;50.364;8.958;2023-02-19T18:24:44;101002.00;;;10.82;79.42
17230;BME280;8731;50.364;8.958;2023-02-19T18:29:07;100992.81;;;10.75;79.87
17230;BME280;8731;50.364;8.958;2023-02-19T18:33:29;100989.38;;;10.74;80.00
17230;BME280;8731;50.364;8.958;2023-02-19T18:37:54;100993.72;;;10.75;79.32
17230;BME280;8731;50.364;8.958;2023-02-19T18:42:16;101000.88;;;10.71;79.57
17230;BME280;8731;50.364;8.958;2023-02-19T18:46:38;101005.72;;;10.61;80.09
17230;BME280;8731;50.364;8.958;2023-02-19T18:51:01;100993.69;;;10.67;80.20
17230;BME280;8731;50.364;8.958;2023-02-19T18:55:25;100986.97;;;10.52;80.61
17230;BME280;8731;50.364;8.958;2023-02-19T18:59:47;100994.06;;;10.63;80.18
17230;BME280;8731;50.364;8.958;2023-02-19T19:04:09;100987.53;;;10.49;80.37
17230;BME280;8731;50.364;8.958;2023-02-19T19:08:32;100992.03;;;10.52;80.80
17230;BME280;8731;50.364;8.958;2023-02-19T19:12:56;100992.94;;;10.52;81.11
17230;BME280;8731;50.364;8.958;2023-02-19T19:17:18;100999.38;;;10.49;80.85
17230;BME280;8731;50.364;8.958;2023-02-19T19:21:41;101001.00;;;10.48;81.04
17230;BME280;8731;50.364;8.958;2023-02-19T19:26:03;100991.72;;;10.49;81.27
17230;BME280;8731;50.364;8.958;2023-02-19T19:30:27;100990.97;;;10.50;80.89
17230;BME280;8731;50.364;8.958;2023-02-19T19:34:50;100997.06;;;10.43;81.42
17230;BME280;8731;50.364;8.958;2023-02-19T19:39:12;100998.72;;;10.42;81.69
17230;BME280;8731;50.364;8.958;2023-02-19T19:43:34;100998.88;;;10.44;81.67
17230;BME280;8731;50.364;8.958;2023-02-19T19:47:59;101003.13;;;10.52;81.48
17230;BME280;8731;50.364;8.958;2023-02-19T19:52:21;101012.00;;;10.40;81.88
17230;BME280;8731;50.364;8.958;2023-02-19T19:56:45;101014.16;;;10.44;81.84
17230;BME280;8731;50.364;8.958;2023-02-19T20:01:09;101012.69;;;10.46;81.69
17230;BME280;8731;50.364;8.958;2023-02-19T20:05:32;101019.84;;;10.41;81.90
17230;BME280;8731;50.364;8.958;2023-02-19T20:09:55;101015.28;;;10.39;82.61
17230;BME280;8731;50.364;8.958;2023-02-19T20:14:18;101017.13;;;10.24;82.76
17230;BME280;8731;50.364;8.958;2023-02-19T20:18:42;101029.50;;;10.37;82.95
17230;BME280;8731;50.364;8.958;2023-02-19T20:23:05;101035.66;;;10.39;82.88
17230;BME280;8731;50.364;8.958;2023-02-19T20:27:28;101041.16;;;10.35;82.89
17230;BME280;8731;50.364;8.958;2023-02-19T20:31:50;101043.69;;;10.35;82.82
17230;BME280;8731;50.364;8.958;2023-02-19T20:36:13;101044.38;;;10.25;83.23
17230;BME280;8731;50.364;8.958;2023-02-19T20:40:36;101053.31;;;10.22;84.84
17230;BME280;8731;50.364;8.958;2023-02-19T20:44:59;101050.38;;;10.26;84.08
17230;BME280;8731;50.364;8.958;2023-02-19T20:49:23;101045.88;;;10.16;84.40
17230;BME280;8731;50.364;8.958;2023-02-19T20:53:46;101046.13;;;10.10;84.73
17230;BME280;8731;50.364;8.958;2023-02-19T20:58:10;101039.88;;;10.15;84.04
17230;BME280;8731;50.364;8.958;2023-02-19T21:02:32;101047.50;;;10.15;84.31
17230;BME280;8731;50.364;8.958;2023-02-19T21:06:55;101054.06;;;10.21;83.56
17230;BME280;8731;50.364;8.958;2023-02-19T21:11:17;101059.50;;;10.16;84.08
17230;BME280;8731;50.364;8.958;2023-02-19T21:15:41;101065.41;;;10.08;84.08
17230;BME280;8731;50.364;8.958;2023-02-19T21:20:04;101077.88;;;10.14;84.54
17230;BME280;8731;50.364;8.958;2023-02-19T21:24:27;101084.69;;;10.06;84.65
17230;BME280;8731;50.364;8.958;2023-02-19T21:28:52;101092.16;;;10.05;84.58
17230;BME280;8731;50.364;8.958;2023-02-19T21:33:16;101103.06;;;10.04;84.27
17230;BME280;8731;50.364;8.958;2023-02-19T21:37:40;101090.34;;;10.04;85.06
17230;BME280;8731;50.364;8.958;2023-02-19T21:42:03;101103.88;;;9.96;85.76
17230;BME280;8731;50.364;8.958;2023-02-19T21:46:26;101105.69;;;9.97;85.98
17230;BME280;8731;50.364;8.958;2023-02-19T21:50:49;101099.88;;;9.98;86.01
17230;BME280;8731;50.364;8.958;2023-02-19T21:55:11;101114.59;;;9.93;86.36
17230;BME280;8731;50.364;8.958;2023-02-19T21:59:34;101123.22;;;9.87;87.09
17230;BME280;8731;50.364;8.958;2023-02-19T22:03:56;101116.97;;;9.92;87.07
17230;BME280;8731;50.364;8.958;2023-02-19T22:08:20;101131.13;;;9.97;87.91
17230;BME280;8731;50.364;8.958;2023-02-19T22:12:42;101139.78;;;9.83;88.70
17230;BME280;8731;50.364;8.958;2023-02-19T22:17:04;101134.69;;;9.60;88.68
17230;BME280;8731;50.364;8.958;2023-02-19T22:21:28;101148.41;;;9.69;89.79
17230;BME280;8731;50.364;8.958;2023-02-19T22:25:52;101149.09;;;9.75;89.12
17230;BME280;8731;50.364;8.958;2023-02-19T22:30:15;101155.59;;;9.80;89.21
17230;BME280;8731;50.364;8.958;2023-02-19T22:34:38;101154.88;;;9.81;89.00
17230;BME280;8731;50.364;8.958;2023-02-19T22:39:01;101152.16;;;9.80;89.01
17230;BME280;8731;50.364;8.958;2023-02-19T22:43:25;101151.41;;;9.81;88.37
17230;BME280;8731;50.364;8.958;2023-02-19T22:47:48;101145.84;;;9.69;88.48
17230;BME280;8731;50.364;8.958;2023-02-19T22:52:10;101139.34;;;9.71;89.23
17230;BME280;8731;50.364;8.958;2023-02-19T22:56:33;101134.44;;;9.66;89.06
17230;BME280;8731;50.364;8.958;2023-02-19T23:00:57;101123.38;;;9.65;89.01
17230;BME280;8731;50.364;8.958;2023-02-19T23:05:19;101139.75;;;9.60;88.95
17230;BME280;8731;50.364;8.958;2023-02-19T23:09:43;101141.13;;;9.49;88.58
17230;BME280;8731;50.364;8.958;2023-02-19T23:14:06;101146.84;;;9.33;87.39
17230;BME280;8731;50.364;8.958;2023-02-19T23:18:30;101155.97;;;9.23;86.72
17230;BME280;8731;50.364;8.958;2023-02-19T23:22:52;101157.00;;;9.33;86.56
17230;BME280;8731;50.364;8.958;2023-02-19T23:27:14;101172.66;;;9.21;86.20
17230;BME280;8731;50.364;8.958;2023-02-19T23:31:37;101165.25;;;9.16;85.85
17230;BME280;8731;50.364;8.958;2023-02-19T23:36:00;101155.13;;;9.09;85.92
17230;BME280;8731;50.364;8.958;2023-02-19T23:40:23;101159.31;;;9.08;85.33
17230;BME280;8731;50.364;8.958;2023-02-19T23:44:45;101157.50;;;9.07;85.64
17230;BME280;8731;50.364;8.958;2023-02-19T23:49:08;101146.25;;;9.05;85.61
17230;BME280;8731;50.364;8.958;2023-02-19T23:53:32;101139.75;;;9.00;85.28